sensor_id;sensor_type;location;lat;lon;timestamp;pressure;altitude;pressure_sealevel;temperature;humidity
62025;BME280;47978;49.118;12.146;2023-05-31T00:00:36;97891.16;;;14.27;45.46
62025;BME280;47978;49.118;12.146;2023-05-31T00:04:38;97878.84;;;14.19;45.55
62025;BME280;47978;49.118;12.146;2023-05-31T00:08:41;97885.69;;;14.13;46.22
62025;BME280;47978;49.118;12.146;2023-05-31T00:12:43;97876.06;;;14.19;45.67
62025;BME280;47978;49.118;12.146;2023-05-31T00:16:44;97877.53;;;14.16;45.66
62025;BME280;47978;49.118;12.146;2023-05-31T00:21:06;97876.66;;;14.07;46.19
62025;BME280;47978;49.118;12.146;2023-05-31T00:25:09;97876.25;;;13.91;46.42
62025;BME280;47978;49.118;12.146;2023-05-31T00:29:10;97891.97;;;13.96;46.52
62025;BME280;47978;49.118;12.146;2023-05-31T00:33:12;97891.41;;;13.85;46.54
62025;BME280;47978;49.118;12.146;2023-05-31T00:37:13;97884.28;;;13.93;46.55
62025;BME280;47978;49.118;12.146;2023-05-31T00:41:16;97884.06;;;13.81;46.98
62025;BME280;47978;49.118;12.146;2023-05-31T00:45:18;97888.59;;;13.77;46.97
62025;BME280;47978;49.118;12.146;2023-05-31T00:49:20;97879.91;;;13.69;47.25
62025;BME280;47978;49.118;12.146;2023-05-31T00:53:22;97887.31;;;13.60;47.93
62025;BME280;47978;49.118;12.146;2023-05-31T00:57:25;97880.47;;;13.58;47.59
62025;BME280;47978;49.118;12.146;2023-05-31T01:01:27;97878.44;;;13.49;48.20
62025;BME280;47978;49.118;12.146;2023-05-31T01:05:29;97879.50;;;13.40;48.58
62025;BME280;47978;49.118;12.146;2023-05-31T01:09:31;97872.84;;;13.41;48.43
62025;BME280;47978;49.118;12.146;2023-05-31T01:13:38;97873.06;;;13.31;49.03
62025;BME280;47978;49.118;12.146;2023-05-31T01:17:45;97875.75;;;13.22;49.18
62025;BME280;47978;49.118;12.146;2023-05-31T01:21:56;97877.38;;;13.23;49.92
62025;BME280;47978;49.118;12.146;2023-05-31T01:26:35;97884.00;;;13.13;50.56
62025;BME280;47978;49.118;12.146;2023-05-31T01:30:37;97889.16;;;12.56;53.40
62025;BME280;47978;49.118;12.146;2023-05-31T01:34:39;97891.09;;;12.55;54.38
62025;BME280;47978;49.118;12.146;2023-05-31T01:38:40;97891.50;;;12.21;55.68
62025;BME280;47978;49.118;12.146;2023-05-31T01:42:45;97888.69;;;11.93;56.85
62025;BME280;47978;49.118;12.146;2023-05-31T01:46:48;97898.81;;;11.84;57.24
62025;BME280;47978;49.118;12.146;2023-05-31T01:50:50;97894.59;;;11.73;59.65
62025;BME280;47978;49.118;12.146;2023-05-31T01:54:52;97894.75;;;11.30;59.16
62025;BME280;47978;49.118;12.146;2023-05-31T01:58:56;97900.69;;;11.37;57.58
62025;BME280;47978;49.118;12.146;2023-05-31T02:02:59;97903.41;;;11.42;60.25
62025;BME280;47978;49.118;12.146;2023-05-31T02:07:01;97904.81;;;11.40;60.13
62025;BME280;47978;49.118;12.146;2023-05-31T02:11:03;97902.31;;;11.24;61.87
62025;BME280;47978;49.118;12.146;2023-05-31T02:15:07;97898.19;;;11.22;60.97
62025;BME280;47978;49.118;12.146;2023-05-31T02:19:09;97903.78;;;10.98;62.63
62025;BME280;47978;49.118;12.146;2023-05-31T02:23:10;97912.31;;;11.20;60.77
62025;BME280;47978;49.118;12.146;2023-05-31T02:27:12;97903.88;;;11.12;61.86
62025;BME280;47978;49.118;12.146;2023-05-31T02:31:15;97900.41;;;11.01;62.66
62025;BME280;47978;49.118;12.146;2023-05-31T02:35:16;97904.44;;;10.90;61.87
62025;BME280;47978;49.118;12.146;2023-05-31T02:39:18;97909.28;;;10.60;63.26
62025;BME280;47978;49.118;12.146;2023-05-31T02:43:20;97908.25;;;10.75;63.13
62025;BME280;47978;49.118;12.146;2023-05-31T02:47:23;97905.97;;;10.58;63.74
62025;BME280;47978;49.118;12.146;2023-05-31T02:51:24;97916.00;;;10.54;64.23
62025;BME280;47978;49.118;12.146;2023-05-31T02:55:26;97916.00;;;10.30;64.88
62025;BME280;47978;49.118;12.146;2023-05-31T02:59:28;97916.59;;;10.27;65.02
62025;BME280;47978;49.118;12.146;2023-05-31T03:03:30;97921.94;;;10.13;66.30
62025;BME280;47978;49.118;12.146;2023-05-31T03:07:32;97927.44;;;9.89;66.85
62025;BME280;47978;49.118;12.146;2023-05-31T03:11:34;97931.41;;;10.07;66.24
62025;BME280;47978;49.118;12.146;2023-05-31T03:15:35;97943.00;;;9.80;67.72
62025;BME280;47978;49.118;12.146;2023-05-31T03:19:38;97937.34;;;9.66;68.82
62025;BME280;47978;49.118;12.146;2023-05-31T03:23:40;97932.72;;;9.56;68.99
62025;BME280;47978;49.118;12.146;2023-05-31T03:27:42;97937.72;;;9.54;70.70
62025;BME280;47978;49.118;12.146;2023-05-31T03:31:43;97929.84;;;9.37;69.97
62025;BME280;47978;49.118;12.146;2023-05-31T03:35:46;97934.94;;;9.54;70.68
62025;BME280;47978;49.118;12.146;2023-05-31T03:39:48;97932.41;;;9.23;70.29
62025;BME280;47978;49.118;12.146;2023-05-31T03:43:49;97936.34;;;9.12;70.40
62025;BME280;47978;49.118;12.146;2023-05-31T03:47:51;97942.50;;;8.99;71.46
62025;BME280;47978;49.118;12.146;2023-05-31T03:51:54;97941.66;;;8.98;71.83
62025;BME280;47978;49.118;12.146;2023-05-31T03:55:55;97949.78;;;8.80;73.07
62025;BME280;47978;49.118;12.146;2023-05-31T03:59:57;97945.22;;;8.49;74.34
62025;BME280;47978;49.118;12.146;2023-05-31T04:03:58;97947.88;;;8.75;74.46
62025;BME280;47978;49.118;12.146;2023-05-31T04:08:02;97940.56;;;8.34;75.59
62025;BME280;47978;49.118;12.146;2023-05-31T04:12:04;97935.94;;;8.15;76.75
62025;BME280;47978;49.118;12.146;2023-05-31T04:16:05;97939.75;;;8.24;76.61
62025;BME280;47978;49.118;12.146;2023-05-31T04:20:08;97943.03;;;8.31;76.74
62025;BME280;47978;49.118;12.146;2023-05-31T04:24:11;97952.66;;;8.49;76.30
62025;BME280;47978;49.118;12.146;2023-05-31T04:28:12;97953.22;;;8.46;76.49
62025;BME280;47978;49.118;12.146;2023-05-31T04:32:14;97949.91;;;8.33;77.46
62025;BME280;47978;49.118;12.146;2023-05-31T04:36:16;97952.38;;;8.50;77.02
62025;BME280;47978;49.118;12.146;2023-05-31T04:40:19;97957.56;;;8.62;76.82
62025;BME280;47978;49.118;12.146;2023-05-31T04:44:20;97958.66;;;8.66;77.19
62025;BME280;47978;49.118;12.146;2023-05-31T04:48:22;97970.03;;;9.09;75.79
62025;BME280;47978;49.118;12.146;2023-05-31T04:52:24;97965.09;;;9.45;74.58
62025;BME280;47978;49.118;12.146;2023-05-31T04:56:26;97963.78;;;10.01;74.22
62025;BME280;47978;49.118;12.146;2023-05-31T05:00:28;97964.41;;;10.51;71.87
62025;BME280;47978;49.118;12.146;2023-05-31T05:04:30;97963.72;;;11.08;69.20
62025;BME280;47978;49.118;12.146;2023-05-31T05:08:31;97953.94;;;13.52;61.71
62025;BME280;47978;49.118;12.146;2023-05-31T05:12:34;97951.13;;;15.82;54.08
62025;BME280;47978;49.118;12.146;2023-05-31T05:16:36;97950.97;;;16.99;50.83
62025;BME280;47978;49.118;12.146;2023-05-31T05:20:37;97962.28;;;18.16;48.07
62025;BME280;47978;49.118;12.146;2023-05-31T05:24:39;97961.97;;;18.75;46.59
62025;BME280;47978;49.118;12.146;2023-05-31T05:28:42;97972.22;;;20.10;44.40
62025;BME280;47978;49.118;12.146;2023-05-31T05:32:44;97977.19;;;19.36;45.80
62025;BME280;47978;49.118;12.146;2023-05-31T05:36:45;97976.34;;;20.28;44.19
62025;BME280;47978;49.118;12.146;2023-05-31T05:40:47;97979.00;;;21.13;42.59
62025;BME280;47978;49.118;12.146;2023-05-31T05:44:50;97969.44;;;23.08;39.38
62025;BME280;47978;49.118;12.146;2023-05-31T05:48:51;97966.09;;;23.25;37.72
62025;BME280;47978;49.118;12.146;2023-05-31T05:52:53;97963.16;;;23.45;37.65
62025;BME280;47978;49.118;12.146;2023-05-31T05:56:55;97954.78;;;23.48;35.79
62025;BME280;47978;49.118;12.146;2023-05-31T06:00:57;97960.53;;;22.83;35.93
62025;BME280;47978;49.118;12.146;2023-05-31T06:04:59;97963.28;;;23.52;35.42
62025;BME280;47978;49.118;12.146;2023-05-31T06:09:01;97966.25;;;23.36;34.85
62025;BME280;47978;49.118;12.146;2023-05-31T06:13:03;97959.31;;;23.56;36.60
62025;BME280;47978;49.118;12.146;2023-05-31T06:17:06;97967.13;;;24.61;35.97
62025;BME280;47978;49.118;12.146;2023-05-31T06:21:08;97968.00;;;21.39;37.06
62025;BME280;47978;49.118;12.146;2023-05-31T06:25:09;97965.66;;;21.96;37.83
62025;BME280;47978;49.118;12.146;2023-05-31T06:29:11;97967.16;;;22.29;34.14
62025;BME280;47978;49.118;12.146;2023-05-31T06:33:14;97955.84;;;22.71;34.37
62025;BME280;47978;49.118;12.146;2023-05-31T06:37:15;97959.72;;;21.82;35.20
62025;BME280;47978;49.118;12.146;2023-05-31T06:41:17;97965.88;;;20.41;36.60
62025;BME280;47978;49.118;12.146;2023-05-31T06:45:18;97955.56;;;22.76;35.25
62025;BME280;47978;49.118;12.146;2023-05-31T06:49:21;97954.09;;;23.05;32.48
62025;BME280;47978;49.118;12.146;2023-05-31T06:53:23;97946.16;;;23.68;32.27
62025;BME280;47978;49.118;12.146;2023-05-31T06:57:25;97945.63;;;23.85;32.97
62025;BME280;47978;49.118;12.146;2023-05-31T07:01:26;97946.19;;;22.68;32.98
62025;BME280;47978;49.118;12.146;2023-05-31T07:05:29;97945.78;;;22.08;33.04
62025;BME280;47978;49.118;12.146;2023-05-31T07:09:31;97934.19;;;22.75;32.29
62025;BME280;47978;49.118;12.146;2023-05-31T07:13:32;97940.44;;;24.99;29.68
62025;BME280;47978;49.118;12.146;2023-05-31T07:17:34;97930.72;;;24.97;28.96
62025;BME280;47978;49.118;12.146;2023-05-31T07:21:37;97931.63;;;22.66;32.17
62025;BME280;47978;49.118;12.146;2023-05-31T07:25:39;97931.94;;;24.21;30.59
62025;BME280;47978;49.118;12.146;2023-05-31T07:29:42;97930.94;;;23.46;29.82
62025;BME280;47978;49.118;12.146;2023-05-31T07:33:43;97925.84;;;24.19;29.97
62025;BME280;47978;49.118;12.146;2023-05-31T07:37:47;97928.59;;;24.12;29.51
62025;BME280;47978;49.118;12.146;2023-05-31T07:41:48;97927.28;;;23.19;30.86
62025;BME280;47978;49.118;12.146;2023-05-31T07:45:50;97925.66;;;24.38;29.95
62025;BME280;47978;49.118;12.146;2023-05-31T07:49:52;97911.31;;;24.17;29.98
62025;BME280;47978;49.118;12.146;2023-05-31T07:53:55;97908.59;;;25.68;29.21
62025;BME280;47978;49.118;12.146;2023-05-31T07:57:57;97913.38;;;23.90;29.56
62025;BME280;47978;49.118;12.146;2023-05-31T08:01:58;97898.34;;;25.46;29.07
62025;BME280;47978;49.118;12.146;2023-05-31T08:06:00;97903.09;;;24.42;29.94
62025;BME280;47978;49.118;12.146;2023-05-31T08:10:03;97888.59;;;27.88;25.28
62025;BME280;47978;49.118;12.146;2023-05-31T08:14:05;97893.34;;;28.13;24.72
62025;BME280;47978;49.118;12.146;2023-05-31T08:18:07;97886.59;;;26.31;26.13
62025;BME280;47978;49.118;12.146;2023-05-31T08:22:09;97897.00;;;25.98;28.28
62025;BME280;47978;49.118;12.146;2023-05-31T08:26:12;97901.28;;;26.58;27.11
62025;BME280;47978;49.118;12.146;2023-05-31T08:30:14;97897.69;;;24.26;29.47
62025;BME280;47978;49.118;12.146;2023-05-31T08:34:15;97902.34;;;25.38;28.79
62025;BME280;47978;49.118;12.146;2023-05-31T08:38:17;97912.09;;;24.14;29.55
62025;BME280;47978;49.118;12.146;2023-05-31T08:42:24;97888.34;;;24.59;29.27
62025;BME280;47978;49.118;12.146;2023-05-31T08:46:26;97896.22;;;24.39;29.54
62025;BME280;47978;49.118;12.146;2023-05-31T08:50:29;97895.16;;;24.99;28.81
62025;BME280;47978;49.118;12.146;2023-05-31T08:54:32;97893.06;;;24.89;28.32
62025;BME280;47978;49.118;12.146;2023-05-31T08:58:37;97892.81;;;25.12;28.90
62025;BME280;47978;49.118;12.146;2023-05-31T09:02:39;97878.00;;;26.02;27.95
62025;BME280;47978;49.118;12.146;2023-05-31T09:06:43;97879.66;;;24.82;29.85
62025;BME280;47978;49.118;12.146;2023-05-31T09:10:44;97879.59;;;24.75;29.48
62025;BME280;47978;49.118;12.146;2023-05-31T09:14:48;97887.53;;;24.21;29.95
62025;BME280;47978;49.118;12.146;2023-05-31T09:18:59;97876.53;;;23.79;30.69
62025;BME280;47978;49.118;12.146;2023-05-31T09:23:02;97884.44;;;23.09;32.05
62025;BME280;47978;49.118;12.146;2023-05-31T09:27:04;97873.06;;;23.32;32.17
62025;BME280;47978;49.118;12.146;2023-05-31T09:31:07;97881.56;;;23.63;31.35
62025;BME280;47978;49.118;12.146;2023-05-31T09:35:10;97861.56;;;23.18;32.07
62025;BME280;47978;49.118;12.146;2023-05-31T09:39:12;97868.94;;;22.77;33.08
62025;BME280;47978;49.118;12.146;2023-05-31T09:43:15;97858.78;;;23.48;33.54
62025;BME280;47978;49.118;12.146;2023-05-31T09:47:22;97859.31;;;23.01;32.64
62025;BME280;47978;49.118;12.146;2023-05-31T09:51:24;97855.44;;;23.12;33.15
62025;BME280;47978;49.118;12.146;2023-05-31T09:55:39;97847.16;;;22.74;34.37
62025;BME280;47978;49.118;12.146;2023-05-31T09:59:41;97845.25;;;23.65;33.76
62025;BME280;47978;49.118;12.146;2023-05-31T10:03:44;97844.56;;;22.88;32.19
62025;BME280;47978;49.118;12.146;2023-05-31T10:07:48;97839.53;;;23.27;33.29
62025;BME280;47978;49.118;12.146;2023-05-31T10:11:53;97836.13;;;23.15;33.10
62025;BME280;47978;49.118;12.146;2023-05-31T10:16:01;97836.19;;;22.92;32.97
62025;BME280;47978;49.118;12.146;2023-05-31T10:20:11;97839.31;;;22.86;32.84
62025;BME280;47978;49.118;12.146;2023-05-31T10:24:20;97834.31;;;23.29;33.36
62025;BME280;47978;49.118;12.146;2023-05-31T10:28:27;97824.13;;;23.21;32.54
62025;BME280;47978;49.118;12.146;2023-05-31T10:32:32;97829.81;;;23.55;33.29
62025;BME280;47978;49.118;12.146;2023-05-31T10:36:36;97819.09;;;24.01;32.52
62025;BME280;47978;49.118;12.146;2023-05-31T10:40:56;97816.03;;;24.17;31.90
62025;BME280;47978;49.118;12.146;2023-05-31T10:45:09;97823.41;;;23.58;32.27
62025;BME280;47978;49.118;12.146;2023-05-31T10:49:15;97821.44;;;23.28;34.08
62025;BME280;47978;49.118;12.146;2023-05-31T10:53:18;97805.38;;;23.36;33.77
62025;BME280;47978;49.118;12.146;2023-05-31T10:57:19;97793.53;;;23.23;34.34
62025;BME280;47978;49.118;12.146;2023-05-31T11:01:21;97797.97;;;23.54;32.08
62025;BME280;47978;49.118;12.146;2023-05-31T11:05:25;97800.09;;;22.78;33.83
62025;BME280;47978;49.118;12.146;2023-05-31T11:09:31;97792.66;;;22.93;34.30
62025;BME280;47978;49.118;12.146;2023-05-31T11:13:57;97809.56;;;23.46;33.65
62025;BME280;47978;49.118;12.146;2023-05-31T11:17:59;97796.00;;;22.98;33.89
62025;BME280;47978;49.118;12.146;2023-05-31T11:22:07;97802.38;;;22.68;32.96
62025;BME280;47978;49.118;12.146;2023-05-31T11:26:14;97798.69;;;22.64;34.04
62025;BME280;47978;49.118;12.146;2023-05-31T11:30:16;97786.88;;;22.55;34.05
62025;BME280;47978;49.118;12.146;2023-05-31T11:34:18;97785.72;;;23.43;34.33
62025;BME280;47978;49.118;12.146;2023-05-31T11:38:19;97783.63;;;22.80;33.76
62025;BME280;47978;49.118;12.146;2023-05-31T11:42:22;97779.38;;;22.93;34.49
62025;BME280;47978;49.118;12.146;2023-05-31T11:46:24;97771.47;;;22.76;34.59
62025;BME280;47978;49.118;12.146;2023-05-31T11:50:26;97767.06;;;23.05;33.85
62025;BME280;47978;49.118;12.146;2023-05-31T11:54:28;97756.84;;;23.23;33.60
62025;BME280;47978;49.118;12.146;2023-05-31T11:58:32;97759.94;;;23.11;34.34
62025;BME280;47978;49.118;12.146;2023-05-31T12:02:34;97762.78;;;23.15;34.14
62025;BME280;47978;49.118;12.146;2023-05-31T12:06:35;97751.03;;;23.09;33.35
62025;BME280;47978;49.118;12.146;2023-05-31T12:10:37;97750.59;;;23.07;34.06
62025;BME280;47978;49.118;12.146;2023-05-31T12:14:48;97740.13;;;23.41;34.57
62025;BME280;47978;49.118;12.146;2023-05-31T12:18:50;97743.53;;;23.57;34.04
62025;BME280;47978;49.118;12.146;2023-05-31T12:22:52;97744.47;;;23.01;33.60
62025;BME280;47978;49.118;12.146;2023-05-31T12:26:54;97736.41;;;23.00;35.67
62025;BME280;47978;49.118;12.146;2023-05-31T12:30:57;97739.78;;;23.46;33.61
62025;BME280;47978;49.118;12.146;2023-05-31T12:35:06;97730.22;;;23.21;33.30
62025;BME280;47978;49.118;12.146;2023-05-31T12:39:09;97724.09;;;23.15;34.12
62025;BME280;47978;49.118;12.146;2023-05-31T12:43:11;97721.19;;;23.79;33.62
62025;BME280;47978;49.118;12.146;2023-05-31T12:47:14;97725.25;;;23.44;33.05
62025;BME280;47978;49.118;12.146;2023-05-31T12:51:20;97715.78;;;23.26;33.55
62025;BME280;47978;49.118;12.146;2023-05-31T12:55:21;97713.50;;;23.76;33.29
62025;BME280;47978;49.118;12.146;2023-05-31T12:59:23;97708.84;;;23.94;32.98
62025;BME280;47978;49.118;12.146;2023-05-31T13:03:26;97710.09;;;23.60;33.44
62025;BME280;47978;49.118;12.146;2023-05-31T13:07:28;97705.81;;;23.73;33.86
62025;BME280;47978;49.118;12.146;2023-05-31T13:11:32;97704.97;;;24.13;32.37
62025;BME280;47978;49.118;12.146;2023-05-31T13:15:33;97697.97;;;23.96;32.69
62025;BME280;47978;49.118;12.146;2023-05-31T13:19:36;97694.16;;;23.78;32.59
62025;BME280;47978;49.118;12.146;2023-05-31T13:23:38;97683.66;;;23.75;32.54
62025;BME280;47978;49.118;12.146;2023-05-31T13:27:39;97681.28;;;23.81;32.48
62025;BME280;47978;49.118;12.146;2023-05-31T13:31:41;97672.97;;;23.98;33.75
62025;BME280;47978;49.118;12.146;2023-05-31T13:35:44;97664.09;;;23.96;34.06
62025;BME280;47978;49.118;12.146;2023-05-31T13:39:46;97668.22;;;24.10;32.72
62025;BME280;47978;49.118;12.146;2023-05-31T13:43:48;97662.69;;;24.28;32.35
62025;BME280;47978;49.118;12.146;2023-05-31T13:51:54;97661.69;;;24.02;32.17
62025;BME280;47978;49.118;12.146;2023-05-31T13:55:56;97654.41;;;24.53;32.41
62025;BME280;47978;49.118;12.146;2023-05-31T14:00:03;97646.41;;;24.65;33.27
62025;BME280;47978;49.118;12.146;2023-05-31T14:04:05;97638.84;;;24.87;31.51
62025;BME280;47978;49.118;12.146;2023-05-31T14:08:08;97645.00;;;24.38;32.42
62025;BME280;47978;49.118;12.146;2023-05-31T14:12:09;97649.47;;;23.87;34.44
62025;BME280;47978;49.118;12.146;2023-05-31T14:16:11;97656.50;;;23.67;33.71
62025;BME280;47978;49.118;12.146;2023-05-31T14:20:13;97640.84;;;24.21;33.09
62025;BME280;47978;49.118;12.146;2023-05-31T14:24:16;97642.50;;;24.29;32.06
62025;BME280;47978;49.118;12.146;2023-05-31T14:28:17;97629.34;;;23.96;32.46
62025;BME280;47978;49.118;12.146;2023-05-31T14:32:19;97626.31;;;24.88;32.97
62025;BME280;47978;49.118;12.146;2023-05-31T14:36:21;97623.28;;;24.53;32.00
62025;BME280;47978;49.118;12.146;2023-05-31T14:40:25;97617.88;;;24.30;32.98
62025;BME280;47978;49.118;12.146;2023-05-31T14:44:26;97608.03;;;24.68;32.49
62025;BME280;47978;49.118;12.146;2023-05-31T14:48:28;97616.59;;;24.16;33.59
62025;BME280;47978;49.118;12.146;2023-05-31T14:52:29;97611.69;;;24.10;33.16
62025;BME280;47978;49.118;12.146;2023-05-31T14:56:32;97619.78;;;24.11;32.99
62025;BME280;47978;49.118;12.146;2023-05-31T15:00:34;97607.03;;;24.39;32.52
62025;BME280;47978;49.118;12.146;2023-05-31T15:04:35;97610.97;;;24.20;32.78
62025;BME280;47978;49.118;12.146;2023-05-31T15:08:37;97613.63;;;24.57;32.36
62025;BME280;47978;49.118;12.146;2023-05-31T15:12:40;97617.09;;;23.74;33.18
62025;BME280;47978;49.118;12.146;2023-05-31T15:16:42;97617.19;;;23.88;32.63
62025;BME280;47978;49.118;12.146;2023-05-31T15:20:43;97616.66;;;23.72;32.85
62025;BME280;47978;49.118;12.146;2023-05-31T15:24:45;97609.84;;;23.76;33.22
62025;BME280;47978;49.118;12.146;2023-05-31T15:28:48;97607.09;;;23.87;33.55
62025;BME280;47978;49.118;12.146;2023-05-31T15:32:49;97613.63;;;23.98;32.84
62025;BME280;47978;49.118;12.146;2023-05-31T15:36:51;97607.44;;;23.78;33.22
62025;BME280;47978;49.118;12.146;2023-05-31T15:40:53;97595.06;;;23.94;33.15
62025;BME280;47978;49.118;12.146;2023-05-31T15:44:56;97599.94;;;24.00;33.85
62025;BME280;47978;49.118;12.146;2023-05-31T15:48:57;97590.50;;;23.82;32.50
62025;BME280;47978;49.118;12.146;2023-05-31T15:52:59;97593.03;;;23.91;32.84
62025;BME280;47978;49.118;12.146;2023-05-31T15:57:01;97592.25;;;24.01;33.18
62025;BME280;47978;49.118;12.146;2023-05-31T16:01:04;97593.88;;;24.02;32.91
62025;BME280;47978;49.118;12.146;2023-05-31T16:05:06;97587.06;;;23.58;33.16
62025;BME280;47978;49.118;12.146;2023-05-31T16:09:08;97583.44;;;24.06;34.41
62025;BME280;47978;49.118;12.146;2023-05-31T16:13:09;97582.56;;;23.98;33.02
62025;BME280;47978;49.118;12.146;2023-05-31T16:17:12;97578.22;;;23.64;32.95
62025;BME280;47978;49.118;12.146;2023-05-31T16:21:14;97578.94;;;23.53;33.02
62025;BME280;47978;49.118;12.146;2023-05-31T16:25:16;97577.34;;;24.00;33.16
62025;BME280;47978;49.118;12.146;2023-05-31T16:29:17;97575.56;;;23.78;33.03
62025;BME280;47978;49.118;12.146;2023-05-31T16:33:20;97570.59;;;23.68;33.30
62025;BME280;47978;49.118;12.146;2023-05-31T16:37:23;97568.69;;;23.75;33.32
62025;BME280;47978;49.118;12.146;2023-05-31T16:41:25;97564.00;;;23.49;33.29
62025;BME280;47978;49.118;12.146;2023-05-31T16:45:26;97566.72;;;23.39;33.43
62025;BME280;47978;49.118;12.146;2023-05-31T16:49:29;97563.75;;;23.65;33.95
62025;BME280;47978;49.118;12.146;2023-05-31T16:53:31;97568.50;;;23.57;33.17
62025;BME280;47978;49.118;12.146;2023-05-31T16:57:32;97564.94;;;23.20;33.31
62025;BME280;47978;49.118;12.146;2023-05-31T17:01:34;97566.03;;;23.52;34.06
62025;BME280;47978;49.118;12.146;2023-05-31T17:05:38;97563.41;;;23.26;34.13
62025;BME280;47978;49.118;12.146;2023-05-31T17:09:39;97559.94;;;23.47;33.79
62025;BME280;47978;49.118;12.146;2023-05-31T17:13:41;97566.56;;;23.21;33.58
62025;BME280;47978;49.118;12.146;2023-05-31T17:17:42;97563.59;;;23.06;33.76
62025;BME280;47978;49.118;12.146;2023-05-31T17:21:45;97562.78;;;23.06;33.99
62025;BME280;47978;49.118;12.146;2023-05-31T17:25:47;97562.91;;;22.83;33.81
62025;BME280;47978;49.118;12.146;2023-05-31T17:29:49;97565.53;;;22.99;34.22
62025;BME280;47978;49.118;12.146;2023-05-31T17:33:50;97566.16;;;22.85;34.53
62025;BME280;47978;49.118;12.146;2023-05-31T17:37:53;97566.72;;;22.98;34.62
62025;BME280;47978;49.118;12.146;2023-05-31T17:41:55;97565.50;;;22.95;34.09
62025;BME280;47978;49.118;12.146;2023-05-31T17:45:57;97560.59;;;22.92;40.14
62025;BME280;47978;49.118;12.146;2023-05-31T17:49:59;97561.25;;;22.78;37.38
62025;BME280;47978;49.118;12.146;2023-05-31T17:54:02;97564.00;;;22.41;34.72
62025;BME280;47978;49.118;12.146;2023-05-31T17:58:04;97562.84;;;22.15;36.75
62025;BME280;47978;49.118;12.146;2023-05-31T18:02:06;97562.28;;;22.33;35.98
62025;BME280;47978;49.118;12.146;2023-05-31T18:06:07;97565.25;;;22.17;35.02
62025;BME280;47978;49.118;12.146;2023-05-31T18:10:11;97560.41;;;21.87;36.86
62025;BME280;47978;49.118;12.146;2023-05-31T18:14:12;97557.38;;;21.73;38.21
62025;BME280;47978;49.118;12.146;2023-05-31T18:18:14;97559.47;;;21.53;37.11
62025;BME280;47978;49.118;12.146;2023-05-31T18:22:19;97556.44;;;21.39;42.47
62025;BME280;47978;49.118;12.146;2023-05-31T18:26:22;97566.31;;;20.86;42.05
62025;BME280;47978;49.118;12.146;2023-05-31T18:30:23;97565.13;;;20.68;42.88
62025;BME280;47978;49.118;12.146;2023-05-31T18:34:25;97572.50;;;20.37;42.88
62025;BME280;47978;49.118;12.146;2023-05-31T18:38:27;97576.94;;;20.19;42.88
62025;BME280;47978;49.118;12.146;2023-05-31T18:42:30;97568.31;;;19.92;42.34
62025;BME280;47978;49.118;12.146;2023-05-31T18:46:31;97577.84;;;19.72;46.89
62025;BME280;47978;49.118;12.146;2023-05-31T18:50:33;97574.50;;;19.50;47.02
62025;BME280;47978;49.118;12.146;2023-05-31T18:54:35;97572.97;;;19.21;46.36
62025;BME280;47978;49.118;12.146;2023-05-31T18:58:37;97577.56;;;18.98;48.35
62025;BME280;47978;49.118;12.146;2023-05-31T19:02:39;97576.19;;;18.76;48.69
62025;BME280;47978;49.118;12.146;2023-05-31T19:06:40;97583.53;;;18.68;48.71
62025;BME280;47978;49.118;12.146;2023-05-31T19:10:42;97584.69;;;18.39;49.81
62025;BME280;47978;49.118;12.146;2023-05-31T19:14:45;97585.50;;;17.99;51.13
62025;BME280;47978;49.118;12.146;2023-05-31T19:18:46;97589.09;;;17.75;51.89
62025;BME280;47978;49.118;12.146;2023-05-31T19:22:50;97595.31;;;17.56;51.97
62025;BME280;47978;49.118;12.146;2023-05-31T19:26:52;97596.09;;;17.69;51.92
62025;BME280;47978;49.118;12.146;2023-05-31T19:30:55;97599.84;;;17.48;51.95
62025;BME280;47978;49.118;12.146;2023-05-31T19:34:56;97594.59;;;17.35;51.05
62025;BME280;47978;49.118;12.146;2023-05-31T19:39:00;97600.59;;;17.12;52.92
62025;BME280;47978;49.118;12.146;2023-05-31T19:43:02;97597.81;;;17.12;51.78
62025;BME280;47978;49.118;12.146;2023-05-31T19:47:08;97613.34;;;16.76;53.64
62025;BME280;47978;49.118;12.146;2023-05-31T19:51:10;97604.25;;;16.79;54.54
62025;BME280;47978;49.118;12.146;2023-05-31T19:55:11;97613.69;;;16.54;53.53
62025;BME280;47978;49.118;12.146;2023-05-31T19:59:13;97614.97;;;16.35;53.98
62025;BME280;47978;49.118;12.146;2023-05-31T20:03:16;97616.28;;;16.17;54.95
62025;BME280;47978;49.118;12.146;2023-05-31T20:07:17;97620.19;;;15.95;56.49
62025;BME280;47978;49.118;12.146;2023-05-31T20:11:19;97617.59;;;15.90;55.89
62025;BME280;47978;49.118;12.146;2023-05-31T20:15:21;97612.44;;;15.80;55.97
62025;BME280;47978;49.118;12.146;2023-05-31T20:19:24;97618.28;;;15.57;57.66
62025;BME280;47978;49.118;12.146;2023-05-31T20:23:25;97608.19;;;15.73;56.02
62025;BME280;47978;49.118;12.146;2023-05-31T20:27:27;97610.59;;;15.84;54.43
62025;BME280;47978;49.118;12.146;2023-05-31T20:31:28;97605.06;;;15.45;57.63
62025;BME280;47978;49.118;12.146;2023-05-31T20:35:31;97612.91;;;15.82;53.73
62025;BME280;47978;49.118;12.146;2023-05-31T20:39:33;97607.50;;;15.77;53.34
62025;BME280;47978;49.118;12.146;2023-05-31T20:43:34;97606.63;;;15.55;55.24
62025;BME280;47978;49.118;12.146;2023-05-31T20:47:36;97611.69;;;16.54;49.30
62025;BME280;47978;49.118;12.146;2023-05-31T20:51:39;97601.16;;;16.18;52.27
62025;BME280;47978;49.118;12.146;2023-05-31T20:55:41;97604.63;;;15.94;52.68
62025;BME280;47978;49.118;12.146;2023-05-31T20:59:43;97603.56;;;16.28;49.73
62025;BME280;47978;49.118;12.146;2023-05-31T21:03:45;97610.56;;;16.34;50.52
62025;BME280;47978;49.118;12.146;2023-05-31T21:07:48;97606.44;;;16.53;51.00
62025;BME280;47978;49.118;12.146;2023-05-31T21:11:50;97600.69;;;16.37;49.60